Green City, MO (63545)

4:11 PM CDT on September 20, 2014 (GMT -0500)
KMOMILAN2 | Change Station
CLOSE
Current Station
Personal Weather Station
Location: Milan, MO
Elevation: 910 ft
Nearby Weather Stations

Elev 910 ft 40.17 °N, 93.09 °W | Updated 6 seconds ago

Mostly Cloudy
Mostly Cloudy
82.2 °F
Feels Like 87 °F
N
5.4
Wind Variable Wind from West
Gusts 5.4 mph

Today
High -- | Low -- °F
--% Chance of Precip.
Yesterday
High -- | Low -- °F
Precip. -- in
6:57 AM 7:12 PM
Waning Crescent, 10% visible
Pressure 29.92 in
Visibility 8.0 miles
Clouds Scattered Clouds 2900 ft
Mostly Cloudy 3800 ft
Heat Index 87 °F
Dew Point 71 °F
Humidity 69%
Rainfall 0.00 in
Snow Depth Not available.
UV 2 out of 12
Pollen 5.80 out of 12
Air Quality Not available.
Flu Activity Not available.
METAR KIRK 202055Z AUTO 30007KT 8SM SCT029 BKN038 25/21 A2993 RMK AO2 SLP130 T02500211 57013

More Conditions Fewer Conditions

Pressure 29.92 in
Visibility 8.0 miles
Clouds Scattered Clouds 2900 ft
Mostly Cloudy 3800 ft
Heat Index 87 °F
Dew Point 71 °F
Humidity 69%
Rainfall 0.00 in
Snow Depth Not available.
UV 2 out of 12
Pollen 5.80 out of 12
Air Quality Not available.
Flu Activity Not available.
METAR KIRK 202055Z AUTO 30007KT 8SM SCT029 BKN038 25/21 A2993 RMK AO2 SLP130 T02500211 57013

More Conditions Fewer Conditions

10-Day Weather Forecast

Almanac

Astronomy

Sep. 20, 2014 Rise Set
Actual Time 6:57 AM CDT 7:12 PM CDT
Civil Twilight 6:30 AM CDT 7:39 PM CDT
Nautical Twilight 5:58 AM CDT 8:11 PM CDT
Astronomical Twilight 5:25 AM CDT 8:43 PM CDT
Moon 3:36 AM CDT 5:16 PM CDT
Length of Visible Light 13h 09m
Length of Day
12h 14m
Tomorrow will be 2m 38s shorter.
Waning Crescent, 10% of the Moon is Illuminated
Today
Waning Crescent
Sep 24
New
Oct 1
First Quarter
Oct 8
Full
Oct 15
Last Quarter

Today's Extremes

State Highs State Lows

Community

WunderPhotos

Upload Photos

1,754,947 photos uploaded!

WunderBlogs® & News

Nearby

Snow Depth

Station Depth Elevation
No new snow has been reported.

Earthquake Activity

City Distance Mag. Time & Date
No recent earthquake activity has been reported nearby.
Minimum magnitude displayed is 2.5.

Coastal Water Temperatures

Place Temperature
No Stations Reporting

Nearby Weather Stations